Time;durP1;ratioP1;P1;durP2;ratioP2;P2;SDS_P1;SDS_P2;PMS_P1;PMS_P2;Temp;Humidity;BMP_temperature;BMP_pressure;BME280_temperature;BME280_humidity;BME280_pressure;Samples;Min_cycle;Max_cycle;Signal;HPM_P1;HPM_P2
2023/08/11 00:00:47;;;;;;;5.80;3.80;;;;;;;;;;4997571;28;25124;-71
2023/08/11 00:03:14;;;;;;;5.65;4.78;;;;;;;;;;4999510;28;25066;-71
2023/08/11 00:05:40;;;;;;;5.82;4.30;;;;;;;;;;5000461;28;25065;-71
2023/08/11 00:08:08;;;;;;;7.07;4.57;;;;;;;;;;5001783;28;25092;-72
2023/08/11 00:10:34;;;;;;;5.20;4.25;;;;;;;;;;4999715;28;25069;-72
2023/08/11 00:13:00;;;;;;;4.80;4.30;;;;;;;;;;4994001;28;25078;-70
2023/08/11 00:15:28;;;;;;;9.38;4.03;;;;;;;;;;4998686;28;25158;-73
2023/08/11 00:17:57;;;;;;;7.15;4.47;;;;;;;;;;4989052;28;25067;-72
2023/08/11 00:20:24;;;;;;;5.55;4.70;;;;;;;;;;5004217;28;25081;-71
2023/08/11 00:22:50;;;;;;;6.40;4.65;;;;;;;;;;5002502;28;25077;-71
2023/08/11 00:25:16;;;;;;;8.75;4.57;;;;;;;;;;4995432;28;25070;-71
2023/08/11 00:27:42;;;;;;;6.78;4.47;;;;;;;;;;4991056;28;25067;-71
2023/08/11 00:30:09;;;;;;;5.22;4.70;;;;;;;;;;4987449;28;25156;-72
2023/08/11 00:32:35;;;;;;;7.22;4.03;;;;;;;;;;5007505;28;25061;-71
2023/08/11 00:35:02;;;;;;;7.60;4.93;;;;;;;;;;4993152;28;25086;-70
2023/08/11 00:37:28;;;;;;;7.55;4.82;;;;;;;;;;5003296;28;25069;-70
2023/08/11 00:39:54;;;;;;;7.38;4.93;;;;;;;;;;5002849;28;25182;-72
2023/08/11 00:42:20;;;;;;;7.65;4.93;;;;;;;;;;5000503;28;25074;-70
2023/08/11 00:44:46;;;;;;;7.78;4.78;;;;;;;;;;5001048;28;25084;-70
2023/08/11 00:47:12;;;;;;;6.75;5.40;;;;;;;;;;4999860;28;25097;-72
2023/08/11 00:49:38;;;;;;;11.23;5.53;;;;;;;;;;4998167;28;25166;-71
2023/08/11 00:52:05;;;;;;;7.72;5.35;;;;;;;;;;5020172;28;25092;-70
2023/08/11 00:54:31;;;;;;;5.95;4.97;;;;;;;;;;4997386;28;25130;-71
2023/08/11 00:56:57;;;;;;;7.90;5.18;;;;;;;;;;5008861;28;25074;-71
2023/08/11 00:59:23;;;;;;;8.38;5.97;;;;;;;;;;4996452;28;25100;-71
2023/08/11 01:01:49;;;;;;;6.72;5.30;;;;;;;;;;4995682;28;25084;-71
2023/08/11 01:04:15;;;;;;;6.13;5.38;;;;;;;;;;4984317;28;25127;-72
2023/08/11 01:06:41;;;;;;;9.20;5.45;;;;;;;;;;4997865;28;24924;-71
2023/08/11 01:09:16;;;;;;;7.40;5.15;;;;;;;;;;4990182;28;25118;-71
2023/08/11 01:11:50;;;;;;;9.18;5.28;;;;;;;;;;4992555;28;25059;-72
2023/08/11 01:14:24;;;;;;;7.60;5.10;;;;;;;;;;4986470;28;25049;-71
2023/08/11 01:16:51;;;;;;;7.05;5.20;;;;;;;;;;4997262;28;25142;-71
2023/08/11 01:19:32;;;;;;;7.85;4.88;;;;;;;;;;4987159;28;25063;-70
2023/08/11 01:22:00;;;;;;;9.05;5.47;;;;;;;;;;4991668;28;25063;-71
2023/08/11 01:24:26;;;;;;;9.38;5.90;;;;;;;;;;4989452;28;25070;-70
2023/08/11 01:26:52;;;;;;;7.63;4.88;;;;;;;;;;4989697;28;25064;-71
2023/08/11 01:29:18;;;;;;;8.15;5.60;;;;;;;;;;4983128;28;25053;-71
2023/08/11 01:31:45;;;;;;;8.60;5.75;;;;;;;;;;4992024;28;25062;-70
2023/08/11 01:34:11;;;;;;;7.40;6.07;;;;;;;;;;4990637;28;25145;-70
2023/08/11 01:36:37;;;;;;;10.63;5.60;;;;;;;;;;4984970;28;25058;-71
2023/08/11 01:39:09;;;;;;;8.43;5.47;;;;;;;;;;4985114;28;25073;-70
2023/08/11 01:41:35;;;;;;;6.70;5.20;;;;;;;;;;4988450;28;25061;-70
2023/08/11 01:44:02;;;;;;;8.63;5.90;;;;;;;;;;4997765;28;25155;-71
2023/08/11 01:46:29;;;;;;;9.60;5.45;;;;;;;;;;4993226;28;25186;-71
2023/08/11 01:48:56;;;;;;;8.65;5.40;;;;;;;;;;4999229;28;25177;-71
2023/08/11 01:51:24;;;;;;;8.25;5.63;;;;;;;;;;4990887;28;25066;-70
2023/08/11 01:53:50;;;;;;;8.98;5.55;;;;;;;;;;4997506;28;25084;-70
2023/08/11 01:56:17;;;;;;;10.80;5.15;;;;;;;;;;4990146;28;25067;-71
2023/08/11 01:58:43;;;;;;;8.50;5.53;;;;;;;;;;4996339;28;25054;-71
2023/08/11 02:01:09;;;;;;;6.93;5.25;;;;;;;;;;4995332;28;25091;-71
2023/08/11 02:03:36;;;;;;;8.88;5.80;;;;;;;;;;4992480;28;25103;-71
2023/08/11 02:06:02;;;;;;;9.43;5.15;;;;;;;;;;4998686;28;25065;-70
2023/08/11 02:08:28;;;;;;;9.73;5.25;;;;;;;;;;4993849;28;25047;-70
2023/08/11 02:10:54;;;;;;;7.22;5.22;;;;;;;;;;4984526;28;25057;-71
2023/08/11 02:13:20;;;;;;;7.63;5.28;;;;;;;;;;5001131;28;25072;-70
2023/08/11 02:15:46;;;;;;;7.10;5.63;;;;;;;;;;4998624;28;25122;-72
2023/08/11 02:18:12;;;;;;;10.43;5.82;;;;;;;;;;5002976;28;25071;-71
2023/08/11 02:20:38;;;;;;;9.40;5.78;;;;;;;;;;4995863;28;25149;-70
2023/08/11 02:23:04;;;;;;;7.03;6.03;;;;;;;;;;4984637;28;25118;-71
2023/08/11 02:25:30;;;;;;;9.48;6.20;;;;;;;;;;4999343;28;25059;-71
2023/08/11 02:27:56;;;;;;;7.25;5.40;;;;;;;;;;4988215;28;25060;-72
2023/08/11 02:30:22;;;;;;;9.88;7.18;;;;;;;;;;5002721;28;25051;-72
2023/08/11 02:32:50;;;;;;;9.35;5.75;;;;;;;;;;4993329;28;25065;-70
2023/08/11 02:35:17;;;;;;;12.45;6.40;;;;;;;;;;4992632;28;25080;-70
2023/08/11 02:37:43;;;;;;;7.25;5.57;;;;;;;;;;4987679;28;25077;-71
2023/08/11 02:40:10;;;;;;;10.95;5.90;;;;;;;;;;5008841;28;25069;-71
2023/08/11 02:42:44;;;;;;;9.20;6.32;;;;;;;;;;4988073;28;25147;-70
2023/08/11 02:45:11;;;;;;;9.43;5.70;;;;;;;;;;5019799;28;25056;-70
2023/08/11 02:47:37;;;;;;;8.93;5.75;;;;;;;;;;4994833;28;25086;-71
2023/08/11 02:50:04;;;;;;;11.55;6.43;;;;;;;;;;5003203;28;25053;-70
2023/08/11 02:52:30;;;;;;;8.98;6.30;;;;;;;;;;4998193;28;25043;-70
2023/08/11 02:54:56;;;;;;;7.28;5.60;;;;;;;;;;4998769;28;25072;-71
2023/08/11 02:57:22;;;;;;;8.85;5.53;;;;;;;;;;5010080;28;25091;-71
2023/08/11 02:59:49;;;;;;;11.45;5.43;;;;;;;;;;5002475;28;25091;-70
2023/08/11 03:02:18;;;;;;;9.88;5.93;;;;;;;;;;4998594;28;25069;-70
2023/08/11 03:04:44;;;;;;;8.82;6.22;;;;;;;;;;5014133;28;25145;-71
2023/08/11 03:07:12;;;;;;;6.70;5.75;;;;;;;;;;4994255;28;25093;-71
2023/08/11 03:09:38;;;;;;;9.52;7.18;;;;;;;;;;5005283;28;25077;-70
2023/08/11 03:12:04;;;;;;;9.07;6.65;;;;;;;;;;4987197;28;25075;-69
2023/08/11 03:14:30;;;;;;;10.40;7.07;;;;;;;;;;4991734;28;25072;-69
2023/08/11 03:16:56;;;;;;;12.95;6.60;;;;;;;;;;5006146;28;25095;-70
2023/08/11 03:19:21;;;;;;;10.48;7.57;;;;;;;;;;4990065;28;25059;-72
2023/08/11 03:21:47;;;;;;;10.68;7.13;;;;;;;;;;4994311;28;25145;-70
2023/08/11 03:24:14;;;;;;;12.80;6.78;;;;;;;;;;4999299;28;25055;-70
2023/08/11 03:26:40;;;;;;;8.23;6.55;;;;;;;;;;5000122;28;25060;-72
2023/08/11 03:29:06;;;;;;;10.73;7.30;;;;;;;;;;4992716;28;25144;-71
2023/08/11 03:31:32;;;;;;;11.30;6.82;;;;;;;;;;4995427;28;25078;-72
2023/08/11 03:33:58;;;;;;;14.95;7.72;;;;;;;;;;5002997;28;25064;-70
2023/08/11 03:36:25;;;;;;;13.20;7.68;;;;;;;;;;5002362;28;24956;-70
2023/08/11 03:38:51;;;;;;;7.47;6.63;;;;;;;;;;4993027;28;25063;-71
2023/08/11 03:41:17;;;;;;;11.27;7.50;;;;;;;;;;4999115;28;25072;-71
2023/08/11 03:43:43;;;;;;;10.85;6.97;;;;;;;;;;4996380;28;25067;-71
2023/08/11 03:46:09;;;;;;;10.85;7.00;;;;;;;;;;4997276;28;25082;-71
2023/08/11 03:48:35;;;;;;;10.63;7.15;;;;;;;;;;4988823;28;25143;-71
2023/08/11 03:51:02;;;;;;;13.48;7.15;;;;;;;;;;4990285;28;25152;-71
2023/08/11 03:53:28;;;;;;;11.25;7.88;;;;;;;;;;4991886;28;25075;-70
2023/08/11 03:55:54;;;;;;;12.02;6.68;;;;;;;;;;5002788;28;25133;-71
2023/08/11 03:58:21;;;;;;;11.82;7.65;;;;;;;;;;4986180;28;25102;-70
2023/08/11 04:00:47;;;;;;;15.90;8.32;;;;;;;;;;5002527;28;25086;-71
2023/08/11 04:03:14;;;;;;;12.40;8.10;;;;;;;;;;4992415;28;25057;-72
2023/08/11 04:05:41;;;;;;;12.32;8.35;;;;;;;;;;4994990;28;25082;-70
2023/08/11 04:08:07;;;;;;;10.73;7.70;;;;;;;;;;4995743;28;25064;-71
2023/08/11 04:10:34;;;;;;;12.32;8.38;;;;;;;;;;4996314;28;25136;-71
2023/08/11 04:13:00;;;;;;;11.90;8.30;;;;;;;;;;5002766;28;25110;-71
2023/08/11 04:15:27;;;;;;;12.38;8.38;;;;;;;;;;5006118;28;25087;-70
2023/08/11 04:17:53;;;;;;;10.90;8.27;;;;;;;;;;5008089;28;25146;-71
2023/08/11 04:20:19;;;;;;;16.77;9.02;;;;;;;;;;4996139;28;25065;-70
2023/08/11 04:22:45;;;;;;;12.98;9.13;;;;;;;;;;5002612;28;25080;-70
2023/08/11 04:25:11;;;;;;;13.52;9.30;;;;;;;;;;5014524;28;25206;-71
2023/08/11 04:27:39;;;;;;;13.38;8.73;;;;;;;;;;4993369;28;25071;-70
2023/08/11 04:30:05;;;;;;;14.05;9.30;;;;;;;;;;4999481;28;25071;-70
2023/08/11 04:32:31;;;;;;;14.55;8.95;;;;;;;;;;4995073;28;25125;-70
2023/08/11 04:34:57;;;;;;;14.25;8.88;;;;;;;;;;4999138;28;25068;-69
2023/08/11 04:37:23;;;;;;;14.23;8.80;;;;;;;;;;5003904;28;25160;-73
2023/08/11 04:39:49;;;;;;;11.65;8.05;;;;;;;;;;5008822;28;25083;-73
2023/08/11 04:42:15;;;;;;;14.45;9.13;;;;;;;;;;4994492;28;25084;-73
2023/08/11 04:44:41;;;;;;;12.27;8.68;;;;;;;;;;5005892;28;25058;-73
2023/08/11 04:47:07;;;;;;;15.88;8.93;;;;;;;;;;4993216;28;25070;-74
2023/08/11 04:49:33;;;;;;;14.38;9.15;;;;;;;;;;4992888;28;25158;-73
2023/08/11 04:51:59;;;;;;;18.10;9.05;;;;;;;;;;5008100;28;25126;-72
2023/08/11 04:54:25;;;;;;;14.52;8.82;;;;;;;;;;4999739;28;25146;-74
2023/08/11 04:56:52;;;;;;;17.45;8.98;;;;;;;;;;4998574;28;25099;-73
2023/08/11 04:59:21;;;;;;;11.20;8.70;;;;;;;;;;4995527;28;25050;-73
2023/08/11 05:01:48;;;;;;;18.85;8.95;;;;;;;;;;4991861;28;25057;-73
2023/08/11 05:04:14;;;;;;;12.63;8.32;;;;;;;;;;4990606;28;25143;-74
2023/08/11 05:06:40;;;;;;;15.45;8.57;;;;;;;;;;5003466;28;25136;-72
2023/08/11 05:09:06;;;;;;;16.38;9.80;;;;;;;;;;4993815;28;25065;-74
2023/08/11 05:11:32;;;;;;;15.15;9.32;;;;;;;;;;4994669;28;25053;-74
2023/08/11 05:13:58;;;;;;;14.30;9.20;;;;;;;;;;4984793;28;25070;-73
2023/08/11 05:16:24;;;;;;;11.27;8.65;;;;;;;;;;4996510;28;25075;-74
2023/08/11 05:18:50;;;;;;;13.18;8.90;;;;;;;;;;5003014;28;25061;-74
2023/08/11 05:21:17;;;;;;;18.70;9.60;;;;;;;;;;5002522;28;25056;-73
2023/08/11 05:23:43;;;;;;;15.32;9.45;;;;;;;;;;4988256;28;25060;-72
2023/08/11 05:26:09;;;;;;;17.50;9.15;;;;;;;;;;5004476;28;25062;-73
2023/08/11 05:28:35;;;;;;;18.02;9.43;;;;;;;;;;4998885;28;25084;-74
2023/08/11 05:31:04;;;;;;;15.48;10.05;;;;;;;;;;4997089;28;25057;-74
2023/08/11 05:33:30;;;;;;;17.15;9.80;;;;;;;;;;4993234;28;25058;-73
2023/08/11 05:35:56;;;;;;;16.65;9.55;;;;;;;;;;5001537;28;25079;-74
2023/08/11 05:38:25;;;;;;;15.23;9.45;;;;;;;;;;5017939;28;25062;-75
2023/08/11 05:40:51;;;;;;;17.52;9.43;;;;;;;;;;4997271;28;25082;-74
2023/08/11 05:43:17;;;;;;;18.02;10.07;;;;;;;;;;4986240;28;25097;-72
2023/08/11 05:45:43;;;;;;;18.48;10.43;;;;;;;;;;5002212;28;25163;-73
2023/08/11 05:48:09;;;;;;;15.32;10.05;;;;;;;;;;4988231;28;25062;-74
2023/08/11 05:50:35;;;;;;;17.63;10.98;;;;;;;;;;4989217;28;25067;-73
2023/08/11 05:53:01;;;;;;;14.43;9.90;;;;;;;;;;4997687;28;25066;-75
2023/08/11 05:55:29;;;;;;;17.00;9.95;;;;;;;;;;5001432;28;25066;-73
2023/08/11 05:57:54;;;;;;;21.75;11.40;;;;;;;;;;4994894;28;25142;-73
2023/08/11 06:00:21;;;;;;;18.55;10.75;;;;;;;;;;4997852;28;25535;-73
2023/08/11 06:02:47;;;;;;;14.63;9.80;;;;;;;;;;4999632;28;25115;-74
2023/08/11 06:05:13;;;;;;;15.90;10.27;;;;;;;;;;4998389;28;25093;-73
2023/08/11 06:07:39;;;;;;;19.27;10.05;;;;;;;;;;5002307;28;25153;-74
2023/08/11 06:10:06;;;;;;;16.30;10.50;;;;;;;;;;5009919;28;25187;-73
2023/08/11 06:12:32;;;;;;;20.52;10.02;;;;;;;;;;4999721;28;25132;-74
2023/08/11 06:14:58;;;;;;;17.52;9.75;;;;;;;;;;5010009;28;25076;-74
2023/08/11 06:17:24;;;;;;;18.90;9.82;;;;;;;;;;5008669;28;25083;-73
2023/08/11 06:19:50;;;;;;;16.17;10.38;;;;;;;;;;4999469;28;25112;-73
2023/08/11 06:22:16;;;;;;;14.43;9.73;;;;;;;;;;5003996;28;25094;-73
2023/08/11 06:24:43;;;;;;;15.27;9.25;;;;;;;;;;5000818;28;25072;-73
2023/08/11 06:27:09;;;;;;;17.77;9.93;;;;;;;;;;4997259;28;25144;-74
2023/08/11 06:29:35;;;;;;;16.15;10.38;;;;;;;;;;5000743;28;25069;-73
2023/08/11 06:32:01;;;;;;;15.35;9.02;;;;;;;;;;4995282;28;25128;-73
2023/08/11 06:34:27;;;;;;;15.98;9.35;;;;;;;;;;4984308;28;25117;-73
2023/08/11 06:36:53;;;;;;;14.02;7.97;;;;;;;;;;4997111;28;25058;-73
2023/08/11 06:39:19;;;;;;;16.08;8.40;;;;;;;;;;5003949;28;25078;-73
2023/08/11 06:41:45;;;;;;;16.00;8.50;;;;;;;;;;5000103;28;25123;-74
2023/08/11 06:44:11;;;;;;;15.85;8.32;;;;;;;;;;4995567;28;25075;-75
2023/08/11 06:46:37;;;;;;;14.40;8.38;;;;;;;;;;4999294;28;25088;-74
2023/08/11 06:49:03;;;;;;;13.73;7.88;;;;;;;;;;5002206;28;25058;-75
2023/08/11 06:51:29;;;;;;;14.63;8.52;;;;;;;;;;5000390;28;25160;-74
2023/08/11 06:53:55;;;;;;;13.35;8.50;;;;;;;;;;4992434;28;25071;-74
2023/08/11 06:56:21;;;;;;;13.55;8.52;;;;;;;;;;4998443;28;25069;-73
2023/08/11 06:58:47;;;;;;;18.02;8.60;;;;;;;;;;4993130;28;25104;-75
2023/08/11 07:01:17;;;;;;;18.38;8.32;;;;;;;;;;4997049;28;25075;-74
2023/08/11 07:03:43;;;;;;;15.95;8.68;;;;;;;;;;4994566;28;25146;-75
2023/08/11 07:06:09;;;;;;;13.45;8.93;;;;;;;;;;4995500;28;25123;-73
2023/08/11 07:08:35;;;;;;;14.32;7.72;;;;;;;;;;5006105;28;25068;-72
2023/08/11 07:11:01;;;;;;;15.90;9.10;;;;;;;;;;4986390;28;25100;-73
2023/08/11 07:13:27;;;;;;;16.13;8.23;;;;;;;;;;4987325;28;25080;-74
2023/08/11 07:15:59;;;;;;;15.10;7.97;;;;;;;;;;5001654;28;25126;-74
2023/08/11 07:18:25;;;;;;;12.75;8.30;;;;;;;;;;4992265;28;25155;-73
2023/08/11 07:20:51;;;;;;;12.90;8.10;;;;;;;;;;5001231;28;25081;-74
2023/08/11 07:23:16;;;;;;;15.32;8.07;;;;;;;;;;4988024;28;25114;-73
2023/08/11 07:25:43;;;;;;;13.60;7.25;;;;;;;;;;4997806;28;25122;-73
2023/08/11 07:28:09;;;;;;;15.20;7.40;;;;;;;;;;4998255;28;25084;-73
2023/08/11 07:30:38;;;;;;;14.77;8.15;;;;;;;;;;4995306;28;25063;-73
2023/08/11 07:33:04;;;;;;;11.50;7.28;;;;;;;;;;4993728;28;25054;-74
2023/08/11 07:35:30;;;;;;;13.25;7.30;;;;;;;;;;4993110;28;25058;-73
2023/08/11 07:37:56;;;;;;;11.02;7.68;;;;;;;;;;5005702;28;25053;-73
2023/08/11 07:40:22;;;;;;;11.02;7.10;;;;;;;;;;4995165;28;25107;-74
2023/08/11 07:42:48;;;;;;;11.02;7.25;;;;;;;;;;4995109;28;25117;-74
2023/08/11 07:45:14;;;;;;;12.50;7.25;;;;;;;;;;4996446;28;25071;-74
2023/08/11 07:47:40;;;;;;;14.85;7.00;;;;;;;;;;4986667;28;25065;-74
2023/08/11 07:50:07;;;;;;;9.75;6.45;;;;;;;;;;5002246;28;25067;-73
2023/08/11 07:52:33;;;;;;;10.48;6.50;;;;;;;;;;4998173;28;25168;-74
2023/08/11 07:54:59;;;;;;;10.65;6.57;;;;;;;;;;5002328;28;25053;-74
2023/08/11 07:57:25;;;;;;;11.32;6.63;;;;;;;;;;4991959;28;25104;-74
2023/08/11 07:59:51;;;;;;;12.82;6.47;;;;;;;;;;4997796;28;25080;-74
2023/08/11 08:02:17;;;;;;;11.43;6.90;;;;;;;;;;4999158;28;25049;-74
2023/08/11 08:04:43;;;;;;;9.35;6.35;;;;;;;;;;4990457;28;25145;-75
2023/08/11 08:07:10;;;;;;;10.55;6.03;;;;;;;;;;4996438;28;25065;-74
2023/08/11 08:09:38;;;;;;;11.70;7.32;;;;;;;;;;4996362;28;25099;-73
2023/08/11 08:12:05;;;;;;;12.50;6.38;;;;;;;;;;4987907;28;25143;-73
2023/08/11 08:14:30;;;;;;;9.65;6.05;;;;;;;;;;4994380;28;25060;-73
2023/08/11 08:17:01;;;;;;;13.30;6.88;;;;;;;;;;5001485;28;25102;-73
2023/08/11 08:19:26;;;;;;;15.70;5.93;;;;;;;;;;4992427;28;25076;-72
2023/08/11 08:21:52;;;;;;;11.45;6.60;;;;;;;;;;4997538;28;25100;-74
2023/08/11 08:24:19;;;;;;;12.63;6.43;;;;;;;;;;4989469;28;25081;-74
2023/08/11 08:26:47;;;;;;;9.60;5.38;;;;;;;;;;4998326;28;25079;-74
2023/08/11 08:29:14;;;;;;;13.00;5.90;;;;;;;;;;4991406;28;25059;-75
2023/08/11 08:31:40;;;;;;;9.73;5.72;;;;;;;;;;4991981;28;25141;-74
2023/08/11 08:34:06;;;;;;;13.65;6.60;;;;;;;;;;4984568;28;25070;-73
2023/08/11 08:36:32;;;;;;;8.80;5.32;;;;;;;;;;4998975;28;25104;-75
2023/08/11 08:38:58;;;;;;;10.25;5.35;;;;;;;;;;4992791;28;25078;-75
2023/08/11 08:41:28;;;;;;;10.13;5.07;;;;;;;;;;5004355;28;25140;-76
2023/08/11 08:43:55;;;;;;;9.20;5.10;;;;;;;;;;4984517;28;25072;-74
2023/08/11 08:46:21;;;;;;;8.98;5.18;;;;;;;;;;4995486;28;25063;-75
2023/08/11 08:48:53;;;;;;;11.38;5.47;;;;;;;;;;4996332;28;25060;-75
2023/08/11 08:51:19;;;;;;;12.50;5.45;;;;;;;;;;4995527;28;25060;-74
2023/08/11 08:53:45;;;;;;;8.52;5.28;;;;;;;;;;4989290;28;25060;-73
2023/08/11 08:56:12;;;;;;;9.07;4.93;;;;;;;;;;4995599;28;25078;-73
2023/08/11 08:58:38;;;;;;;10.07;5.10;;;;;;;;;;4983795;28;25145;-74
2023/08/11 09:01:04;;;;;;;9.70;5.25;;;;;;;;;;4994624;28;25133;-74
2023/08/11 09:03:31;;;;;;;10.60;4.30;;;;;;;;;;4981210;28;25077;-74
2023/08/11 09:06:00;;;;;;;8.52;4.07;;;;;;;;;;4986014;28;25052;-74
2023/08/11 09:08:26;;;;;;;14.45;3.92;;;;;;;;;;4986308;28;25061;-75
2023/08/11 09:10:52;;;;;;;12.73;3.55;;;;;;;;;;4996480;28;25065;-75
2023/08/11 09:13:18;;;;;;;8.15;3.92;;;;;;;;;;4992005;28;25061;-75
2023/08/11 09:15:45;;;;;;;6.10;3.78;;;;;;;;;;4987005;28;25105;-75
2023/08/11 09:18:17;;;;;;;5.97;3.80;;;;;;;;;;4984135;28;25097;-75
2023/08/11 09:20:46;;;;;;;7.53;3.85;;;;;;;;;;4994581;28;25228;-74
2023/08/11 09:23:12;;;;;;;8.25;3.83;;;;;;;;;;4994029;28;25094;-74
2023/08/11 09:25:38;;;;;;;8.43;4.25;;;;;;;;;;4989971;28;25075;-75
2023/08/11 09:28:04;;;;;;;8.57;4.07;;;;;;;;;;4986857;28;25060;-75
2023/08/11 09:30:31;;;;;;;7.35;3.88;;;;;;;;;;4994807;28;24952;-74
2023/08/11 09:33:00;;;;;;;6.90;3.75;;;;;;;;;;4995485;28;25144;-75
2023/08/11 09:35:26;;;;;;;5.45;4.38;;;;;;;;;;4999387;28;25128;-74
2023/08/11 09:37:53;;;;;;;5.90;3.80;;;;;;;;;;4999187;28;25065;-73
2023/08/11 09:40:19;;;;;;;6.57;3.75;;;;;;;;;;4994130;28;25150;-74
2023/08/11 09:42:45;;;;;;;7.85;4.20;;;;;;;;;;5006058;28;25071;-75
2023/08/11 09:45:11;;;;;;;8.23;3.85;;;;;;;;;;4998140;28;25072;-74
2023/08/11 09:47:37;;;;;;;7.40;3.90;;;;;;;;;;4989895;28;25054;-74
2023/08/11 09:50:04;;;;;;;8.80;4.22;;;;;;;;;;4989222;28;25077;-75
2023/08/11 09:52:31;;;;;;;8.25;4.57;;;;;;;;;;4995301;28;25101;-75
2023/08/11 09:54:58;;;;;;;8.98;4.60;;;;;;;;;;4998589;28;25063;-75
2023/08/11 09:57:26;;;;;;;11.10;5.13;;;;;;;;;;4998576;28;25237;-74
2023/08/11 09:59:53;;;;;;;6.72;4.20;;;;;;;;;;4997611;28;25073;-74
2023/08/11 10:02:21;;;;;;;9.30;4.85;;;;;;;;;;4994395;28;25082;-75
2023/08/11 10:04:56;;;;;;;7.53;4.30;;;;;;;;;;5002606;28;25059;-73
2023/08/11 10:07:22;;;;;;;6.15;4.43;;;;;;;;;;4995520;28;25147;-78
2023/08/11 10:09:49;;;;;;;7.10;3.30;;;;;;;;;;4988904;28;25067;-74
2023/08/11 10:12:15;;;;;;;5.72;3.58;;;;;;;;;;4989119;28;25086;-73
2023/08/11 10:14:41;;;;;;;9.45;4.20;;;;;;;;;;5004077;28;25060;-75
2023/08/11 10:17:08;;;;;;;8.63;3.58;;;;;;;;;;5007950;28;25116;-75
2023/08/11 10:19:35;;;;;;;7.95;4.72;;;;;;;;;;5007311;28;25072;-74
2023/08/11 10:22:01;;;;;;;10.65;3.80;;;;;;;;;;4999345;28;25067;-74
2023/08/11 10:24:26;;;;;;;5.82;3.58;;;;;;;;;;4999205;28;25105;-75
2023/08/11 10:26:53;;;;;;;6.40;3.38;;;;;;;;;;5004713;28;25039;-74
2023/08/11 10:29:19;;;;;;;4.78;3.47;;;;;;;;;;4989501;28;25167;-74
2023/08/11 10:31:58;;;;;;;6.93;3.45;;;;;;;;;;4998402;28;25104;-74
2023/08/11 10:34:24;;;;;;;10.32;3.47;;;;;;;;;;4999705;28;25103;-74
2023/08/11 10:36:54;;;;;;;6.90;3.90;;;;;;;;;;4997624;28;25096;-75
2023/08/11 10:39:20;;;;;;;4.35;3.42;;;;;;;;;;4997694;28;25171;-75
2023/08/11 10:41:46;;;;;;;5.25;3.20;;;;;;;;;;4997310;28;25051;-75
2023/08/11 10:44:13;;;;;;;7.28;3.05;;;;;;;;;;4992878;28;25072;-74
2023/08/11 10:46:40;;;;;;;4.25;3.10;;;;;;;;;;4992887;28;25099;-76
2023/08/11 10:49:07;;;;;;;3.28;2.97;;;;;;;;;;5002521;28;25159;-75
2023/08/11 10:51:33;;;;;;;3.50;2.95;;;;;;;;;;4993473;28;25175;-75
2023/08/11 10:54:09;;;;;;;6.70;3.55;;;;;;;;;;4989413;28;25068;-75
2023/08/11 10:56:37;;;;;;;3.47;3.17;;;;;;;;;;4990801;28;25067;-76
2023/08/11 10:59:16;;;;;;;4.07;3.08;;;;;;;;;;5000289;28;25073;-75
2023/08/11 11:01:45;;;;;;;5.60;3.10;;;;;;;;;;5000405;28;25058;-75
2023/08/11 11:04:11;;;;;;;4.75;2.88;;;;;;;;;;4993390;28;25089;-76
2023/08/11 11:06:38;;;;;;;4.93;3.38;;;;;;;;;;4993961;28;25189;-75
2023/08/11 11:09:04;;;;;;;6.55;3.60;;;;;;;;;;5000087;28;25069;-76
2023/08/11 11:11:33;;;;;;;9.07;3.40;;;;;;;;;;4998032;28;25091;-74
2023/08/11 11:13:59;;;;;;;9.25;3.33;;;;;;;;;;4996205;28;25074;-75
2023/08/11 11:16:26;;;;;;;7.35;3.53;;;;;;;;;;4983066;28;25111;-76
2023/08/11 11:18:52;;;;;;;7.35;3.05;;;;;;;;;;4998882;28;25157;-74
2023/08/11 11:21:19;;;;;;;8.88;3.25;;;;;;;;;;5000653;28;25097;-73
2023/08/11 11:23:48;;;;;;;5.07;2.90;;;;;;;;;;4989362;28;25141;-74
2023/08/11 11:26:42;;;;;;;6.07;2.92;;;;;;;;;;4994823;28;25116;-76
2023/08/11 11:29:08;;;;;;;5.75;3.40;;;;;;;;;;4998019;28;25100;-74
2023/08/11 11:31:35;;;;;;;5.45;3.80;;;;;;;;;;4997932;28;25097;-75
2023/08/11 11:34:02;;;;;;;6.90;4.00;;;;;;;;;;5010086;28;25065;-74
2023/08/11 11:36:29;;;;;;;6.53;4.72;;;;;;;;;;5000722;28;25163;-74
2023/08/11 11:38:56;;;;;;;12.15;5.53;;;;;;;;;;4998732;28;25091;-74
2023/08/11 11:41:22;;;;;;;6.15;5.13;;;;;;;;;;4999938;28;25078;-74
2023/08/11 11:43:49;;;;;;;7.65;5.18;;;;;;;;;;4996026;28;25075;-75
2023/08/11 11:46:15;;;;;;;8.27;5.35;;;;;;;;;;4991833;28;25108;-76
2023/08/11 11:48:43;;;;;;;8.40;6.00;;;;;;;;;;4985390;28;25072;-77
2023/08/11 11:51:09;;;;;;;9.27;5.85;;;;;;;;;;4998178;28;25091;-75
2023/08/11 11:53:35;;;;;;;8.27;6.15;;;;;;;;;;5002699;28;25108;-77
2023/08/11 11:56:03;;;;;;;9.77;5.93;;;;;;;;;;5000086;28;25067;-76
2023/08/11 11:58:29;;;;;;;9.07;5.80;;;;;;;;;;4987446;28;25075;-74
2023/08/11 12:00:55;;;;;;;8.93;5.25;;;;;;;;;;4998290;28;25095;-75
2023/08/11 12:03:22;;;;;;;6.63;5.85;;;;;;;;;;4990186;28;25050;-76
2023/08/11 12:05:48;;;;;;;10.25;7.38;;;;;;;;;;4998874;28;25063;-75
2023/08/11 12:08:23;;;;;;;10.10;5.72;;;;;;;;;;4996979;28;25057;-77
2023/08/11 12:10:49;;;;;;;8.38;6.70;;;;;;;;;;4998039;28;25060;-75
2023/08/11 12:13:15;;;;;;;12.40;5.40;;;;;;;;;;4992192;28;25076;-76
2023/08/11 12:15:41;;;;;;;9.93;6.45;;;;;;;;;;5002762;28;25088;-75
2023/08/11 12:18:08;;;;;;;13.82;5.82;;;;;;;;;;4990694;28;25124;-76
2023/08/11 12:20:36;;;;;;;9.73;6.43;;;;;;;;;;5015687;28;25069;-78
2023/08/11 12:23:02;;;;;;;10.30;7.50;;;;;;;;;;4997065;28;25095;-76
2023/08/11 12:25:28;;;;;;;10.63;5.70;;;;;;;;;;4992689;28;25093;-75
2023/08/11 12:27:54;;;;;;;12.15;7.43;;;;;;;;;;4989528;28;25069;-75
2023/08/11 12:30:20;;;;;;;9.65;6.90;;;;;;;;;;4992541;28;25076;-77
2023/08/11 12:32:46;;;;;;;13.95;8.85;;;;;;;;;;5003039;28;25110;-76
2023/08/11 12:35:13;;;;;;;11.50;7.05;;;;;;;;;;5001718;28;25148;-77
2023/08/11 12:37:39;;;;;;;12.98;7.78;;;;;;;;;;4991199;28;25136;-75
2023/08/11 12:40:09;;;;;;;9.60;7.35;;;;;;;;;;4997463;28;25073;-76
2023/08/11 12:42:35;;;;;;;13.80;7.63;;;;;;;;;;4991513;28;25069;-74
2023/08/11 12:45:02;;;;;;;15.25;8.23;;;;;;;;;;4993888;28;25134;-75
2023/08/11 12:47:28;;;;;;;12.40;7.97;;;;;;;;;;4990458;28;25067;-74
2023/08/11 12:49:54;;;;;;;14.75;8.73;;;;;;;;;;5005400;28;25107;-75
2023/08/11 12:52:20;;;;;;;12.25;7.30;;;;;;;;;;5005255;28;25063;-74
2023/08/11 12:54:46;;;;;;;12.63;7.35;;;;;;;;;;5004245;28;25140;-76
2023/08/11 12:57:12;;;;;;;11.88;6.68;;;;;;;;;;4999958;28;25074;-74
2023/08/11 12:59:37;;;;;;;9.85;4.50;;;;;;;;;;5002399;28;25057;-73
2023/08/11 13:02:03;;;;;;;10.00;4.07;;;;;;;;;;4998977;28;25057;-74
2023/08/11 13:04:29;;;;;;;13.73;5.20;;;;;;;;;;5000724;28;25108;-75
2023/08/11 13:06:55;;;;;;;12.60;5.53;;;;;;;;;;4994162;28;25058;-76
2023/08/11 13:09:21;;;;;;;12.25;4.32;;;;;;;;;;4988502;28;25134;-75
2023/08/11 13:11:47;;;;;;;9.57;3.83;;;;;;;;;;4989753;28;25140;-75
2023/08/11 13:14:13;;;;;;;14.90;4.43;;;;;;;;;;4987084;28;25100;-75
2023/08/11 13:16:39;;;;;;;10.82;3.75;;;;;;;;;;4997952;28;25092;-76
2023/08/11 13:19:05;;;;;;;9.70;3.85;;;;;;;;;;5001266;28;25069;-75
2023/08/11 13:21:31;;;;;;;7.75;3.40;;;;;;;;;;4991216;28;25078;-74
2023/08/11 13:23:57;;;;;;;12.88;3.75;;;;;;;;;;4993007;28;25126;-74
2023/08/11 13:26:23;;;;;;;11.88;2.67;;;;;;;;;;4988563;28;25075;-76
2023/08/11 13:28:50;;;;;;;8.85;2.92;;;;;;;;;;4998859;28;25067;-74
2023/08/11 13:31:16;;;;;;;7.78;2.75;;;;;;;;;;4995892;28;25506;-73
2023/08/11 13:33:42;;;;;;;8.38;2.85;;;;;;;;;;4991542;28;25083;-75
2023/08/11 13:36:09;;;;;;;11.63;2.42;;;;;;;;;;4996458;28;25076;-75
2023/08/11 13:38:35;;;;;;;11.23;2.53;;;;;;;;;;4988759;28;25085;-75
2023/08/11 13:41:01;;;;;;;8.65;2.60;;;;;;;;;;4994404;28;25101;-74
2023/08/11 13:43:27;;;;;;;7.53;2.60;;;;;;;;;;5003523;28;25116;-76
2023/08/11 13:45:53;;;;;;;6.40;2.40;;;;;;;;;;4991891;28;25084;-76
2023/08/11 13:48:21;;;;;;;9.27;2.85;;;;;;;;;;4993498;28;25059;-74
2023/08/11 13:50:47;;;;;;;6.85;3.00;;;;;;;;;;4998540;28;25056;-75
2023/08/11 13:53:14;;;;;;;6.00;2.40;;;;;;;;;;5000438;28;25070;-74
2023/08/11 13:55:40;;;;;;;5.70;2.30;;;;;;;;;;4992772;28;25063;-75
2023/08/11 13:58:06;;;;;;;9.55;2.70;;;;;;;;;;4998180;28;25105;-74
2023/08/11 14:00:32;;;;;;;9.55;3.08;;;;;;;;;;5001332;28;25078;-75
2023/08/11 14:02:58;;;;;;;5.18;3.17;;;;;;;;;;5006038;28;25058;-75
2023/08/11 14:05:24;;;;;;;7.00;3.42;;;;;;;;;;4997890;28;25068;-76
2023/08/11 14:07:50;;;;;;;11.40;3.63;;;;;;;;;;4987204;28;25049;-74
2023/08/11 14:10:16;;;;;;;14.73;3.22;;;;;;;;;;4992560;28;25102;-75
2023/08/11 14:12:42;;;;;;;10.35;3.55;;;;;;;;;;4995743;28;25076;-74
2023/08/11 14:15:09;;;;;;;11.13;3.45;;;;;;;;;;4991202;28;25075;-75
2023/08/11 14:17:35;;;;;;;9.57;3.65;;;;;;;;;;4991381;28;25129;-75
2023/08/11 14:20:00;;;;;;;11.18;4.25;;;;;;;;;;4994835;28;25046;-74
2023/08/11 14:22:26;;;;;;;7.43;3.33;;;;;;;;;;4998850;28;25097;-73
2023/08/11 14:24:52;;;;;;;11.18;3.20;;;;;;;;;;4999808;28;25066;-74
2023/08/11 14:27:18;;;;;;;9.45;3.38;;;;;;;;;;4998119;28;25050;-75
2023/08/11 14:29:44;;;;;;;6.25;3.20;;;;;;;;;;4996745;28;25078;-74
2023/08/11 14:32:10;;;;;;;12.15;2.97;;;;;;;;;;4986746;28;25046;-74